createdAt,value
2019-03-18T00:00:38.041Z,1002.37
2019-03-18T00:01:38.032Z,1002.50
2019-03-18T00:02:38.079Z,1002.46
2019-03-18T00:03:38.045Z,1002.45
2019-03-18T00:04:38.012Z,1002.51
2019-03-18T00:05:37.989Z,1002.51
2019-03-18T00:06:37.991Z,1002.49
2019-03-18T00:07:37.971Z,1002.51
2019-03-18T00:08:37.958Z,1002.49
2019-03-18T00:09:37.962Z,1002.46
2019-03-18T00:10:37.937Z,1002.53
2019-03-18T00:11:37.921Z,1002.53
2019-03-18T00:12:37.913Z,1002.50
2019-03-18T00:13:37.902Z,1002.50
2019-03-18T00:14:37.903Z,1002.48
2019-03-18T00:15:37.887Z,1002.51
2019-03-18T00:16:37.886Z,1002.44
2019-03-18T00:17:37.861Z,1002.53
2019-03-18T00:18:37.848Z,1002.57
2019-03-18T00:19:37.848Z,1002.51
2019-03-18T00:20:37.824Z,1002.49
2019-03-18T00:21:37.816Z,1002.49
2019-03-18T00:22:37.819Z,1002.50
2019-03-18T00:23:37.799Z,1002.54
2019-03-18T00:24:37.799Z,1002.52
2019-03-18T00:25:37.778Z,1002.49
2019-03-18T00:26:37.763Z,1002.47
2019-03-18T00:27:37.751Z,1002.52
2019-03-18T00:28:37.757Z,1002.50
2019-03-18T00:29:37.751Z,1002.51
2019-03-18T00:30:37.724Z,1002.38
2019-03-18T00:31:37.709Z,1002.41
2019-03-18T00:32:37.701Z,1002.37
2019-03-18T00:33:37.693Z,1002.35
2019-03-18T00:34:37.707Z,1002.36
2019-03-18T00:35:37.669Z,1002.33
2019-03-18T00:36:37.656Z,1002.41
2019-03-18T00:37:37.643Z,1002.41
2019-03-18T00:38:37.633Z,1002.52
2019-03-18T00:39:37.640Z,1002.46
2019-03-18T00:40:37.621Z,1002.46
2019-03-18T00:41:37.603Z,1002.48
2019-03-18T00:42:37.594Z,1002.50
2019-03-18T00:43:37.581Z,1002.50
2019-03-18T00:44:37.581Z,1002.54
2019-03-18T00:45:40.300Z,1002.51
2019-03-18T00:46:37.569Z,1002.52
2019-03-18T00:47:37.537Z,1002.50
2019-03-18T00:48:37.556Z,1002.47
2019-03-18T00:49:37.529Z,1002.46
2019-03-18T00:50:37.505Z,1002.46
2019-03-18T00:51:37.497Z,1002.56
2019-03-18T00:52:37.498Z,1002.60
2019-03-18T00:53:37.487Z,1002.51
2019-03-18T00:54:37.472Z,1002.47
2019-03-18T00:55:37.452Z,1002.52
2019-03-18T00:56:37.442Z,1002.55
2019-03-18T00:57:37.434Z,1002.60
2019-03-18T00:58:37.418Z,1002.66
2019-03-18T00:59:37.441Z,1002.62
2019-03-18T01:00:37.398Z,1002.74
2019-03-18T01:01:37.384Z,1002.71
2019-03-18T01:02:37.376Z,1002.70
2019-03-18T01:03:37.366Z,1002.68
2019-03-18T01:04:37.371Z,1002.73
2019-03-18T01:05:37.363Z,1002.83
2019-03-18T01:06:37.348Z,1002.75
2019-03-18T01:07:37.341Z,1002.79
2019-03-18T01:08:37.313Z,1002.77
2019-03-18T01:09:37.317Z,1002.83
2019-03-18T01:10:37.295Z,1002.84
2019-03-18T01:11:37.298Z,1002.83
2019-03-18T01:12:37.282Z,1002.85
2019-03-18T01:13:37.259Z,1002.82
2019-03-18T01:14:37.262Z,1002.88
2019-03-18T01:15:37.234Z,1002.79
2019-03-18T01:16:37.225Z,1002.90
2019-03-18T01:17:37.222Z,1002.86
2019-03-18T01:18:37.217Z,1002.87
2019-03-18T01:19:37.216Z,1002.84
2019-03-18T01:20:37.206Z,1002.85
2019-03-18T01:21:37.176Z,1002.82
2019-03-18T01:22:37.164Z,1002.82
2019-03-18T01:23:37.152Z,1002.83
2019-03-18T01:24:37.160Z,1002.82
2019-03-18T01:25:37.131Z,1002.86
2019-03-18T01:26:37.123Z,1002.88
2019-03-18T01:27:37.120Z,1002.87
2019-03-18T01:28:37.251Z,1002.90
2019-03-18T01:29:37.139Z,1002.94
2019-03-18T01:30:37.074Z,1002.91
2019-03-18T01:31:37.091Z,1002.92
2019-03-18T01:32:37.057Z,1002.91
2019-03-18T01:33:37.044Z,1002.92
2019-03-18T01:34:37.067Z,1002.94
2019-03-18T01:35:39.871Z,1002.88
2019-03-18T01:36:37.012Z,1002.82
2019-03-18T01:37:37.002Z,1002.88
2019-03-18T01:38:36.990Z,1002.81
2019-03-18T01:39:37.007Z,1002.80
2019-03-18T01:40:36.967Z,1002.78
2019-03-18T01:41:36.956Z,1002.83
2019-03-18T01:42:36.948Z,1002.84
2019-03-18T01:43:36.934Z,1002.83
2019-03-18T01:44:36.942Z,1002.81
2019-03-18T01:45:40.987Z,1002.79
2019-03-18T01:46:36.908Z,1002.73
2019-03-18T01:47:36.892Z,1002.83
2019-03-18T01:48:36.883Z,1002.87
2019-03-18T01:49:36.896Z,1002.70
2019-03-18T01:50:36.863Z,1002.72
2019-03-18T01:51:36.893Z,1002.71
2019-03-18T01:52:36.906Z,1002.70
2019-03-18T01:53:36.831Z,1002.66
2019-03-18T01:54:36.823Z,1002.63
2019-03-18T01:55:36.822Z,1002.61
2019-03-18T01:56:36.801Z,1002.65
2019-03-18T01:57:36.797Z,1002.60
2019-03-18T01:58:36.781Z,1002.64
2019-03-18T01:59:36.766Z,1002.67
2019-03-18T02:00:36.776Z,1002.66
2019-03-18T02:01:36.743Z,1002.69
2019-03-18T02:02:36.735Z,1002.62
2019-03-18T02:03:36.726Z,1002.62
2019-03-18T02:04:36.773Z,1002.63
2019-03-18T02:05:36.720Z,1002.65
2019-03-18T02:06:36.695Z,1002.59
2019-03-18T02:07:36.691Z,1002.62
2019-03-18T02:08:36.667Z,1002.71
2019-03-18T02:09:36.673Z,1002.62
2019-03-18T02:10:36.664Z,1002.73
2019-03-18T02:11:36.636Z,1002.72
2019-03-18T02:12:36.630Z,1002.70
2019-03-18T02:13:36.625Z,1002.72
2019-03-18T02:14:36.611Z,1002.72
2019-03-18T02:15:36.607Z,1002.71
2019-03-18T02:16:36.586Z,1002.65
2019-03-18T02:17:36.582Z,1002.62
2019-03-18T02:18:36.567Z,1002.70
2019-03-18T02:19:36.550Z,1002.70
2019-03-18T02:20:36.557Z,1002.71
2019-03-18T02:21:36.529Z,1002.73
2019-03-18T02:22:36.519Z,1002.68
2019-03-18T02:23:36.515Z,1002.69
2019-03-18T02:24:36.501Z,1002.73
2019-03-18T02:25:36.505Z,1002.69
2019-03-18T02:26:36.472Z,1002.61
2019-03-18T02:27:36.466Z,1002.71
2019-03-18T02:28:36.460Z,1002.68
2019-03-18T02:29:36.457Z,1002.64
2019-03-18T02:30:36.463Z,1002.72
2019-03-18T02:31:36.421Z,1002.68
2019-03-18T02:32:36.424Z,1002.70
2019-03-18T02:33:36.402Z,1002.74
2019-03-18T02:34:36.392Z,1002.74
2019-03-18T02:35:36.398Z,1002.71
2019-03-18T02:36:36.396Z,1002.68
2019-03-18T02:37:36.378Z,1002.67
2019-03-18T02:38:36.351Z,1002.68
2019-03-18T02:39:36.337Z,1002.69
2019-03-18T02:40:36.347Z,1002.67
2019-03-18T02:41:36.352Z,1002.69
2019-03-18T02:42:36.302Z,1002.59
2019-03-18T02:43:36.308Z,1002.69
2019-03-18T02:44:36.302Z,1002.71
2019-03-18T02:45:36.289Z,1002.69
2019-03-18T02:46:36.262Z,1002.76
2019-03-18T02:47:36.249Z,1002.73
2019-03-18T02:48:36.239Z,1002.72
2019-03-18T02:49:36.236Z,1002.74
2019-03-18T02:50:36.254Z,1002.77
2019-03-18T02:51:36.208Z,1002.69
2019-03-18T02:52:36.197Z,1002.66
2019-03-18T02:53:36.187Z,1002.73
2019-03-18T02:54:36.176Z,1002.74
2019-03-18T02:55:36.178Z,1002.68
2019-03-18T02:56:36.174Z,1002.71
2019-03-18T02:57:36.184Z,1002.71
2019-03-18T02:58:36.174Z,1002.74
2019-03-18T02:59:36.123Z,1002.71
2019-03-18T03:00:36.131Z,1002.69
2019-03-18T03:01:36.097Z,1002.66
2019-03-18T03:02:36.109Z,1002.70
2019-03-18T03:03:37.259Z,1002.77
2019-03-18T03:04:36.066Z,1002.72
2019-03-18T03:05:36.087Z,1002.72
2019-03-18T03:06:36.045Z,1002.81
2019-03-18T03:07:36.052Z,1002.82
2019-03-18T03:08:36.031Z,1002.81
2019-03-18T03:09:36.024Z,1002.83
2019-03-18T03:10:36.005Z,1002.79
2019-03-18T03:11:36.020Z,1002.80
2019-03-18T03:12:35.988Z,1002.76
2019-03-18T03:13:35.984Z,1002.78
2019-03-18T03:14:36.097Z,1002.85
2019-03-18T03:15:35.962Z,1002.76
2019-03-18T03:16:36.053Z,1002.77
2019-03-18T03:17:35.944Z,1002.83
2019-03-18T03:18:35.936Z,1002.76
2019-03-18T03:19:35.950Z,1002.73
2019-03-18T03:20:35.918Z,1002.85
2019-03-18T03:21:35.904Z,1002.88
2019-03-18T03:22:35.880Z,1002.85
2019-03-18T03:23:35.913Z,1002.83
2019-03-18T03:24:35.854Z,1002.78
2019-03-18T03:25:35.845Z,1002.84
2019-03-18T03:26:35.850Z,1002.75
2019-03-18T03:27:35.822Z,1002.76
2019-03-18T03:28:35.821Z,1002.80
2019-03-18T03:29:35.797Z,1002.74
2019-03-18T03:30:35.804Z,1002.74
2019-03-18T03:31:35.793Z,1002.94
2019-03-18T03:32:35.768Z,1002.83
2019-03-18T03:33:35.779Z,1002.84
2019-03-18T03:34:35.760Z,1002.82
2019-03-18T03:35:35.739Z,1002.75
2019-03-18T03:36:35.744Z,1002.79
2019-03-18T03:37:35.717Z,1002.97
2019-03-18T03:38:35.709Z,1002.87
2019-03-18T03:39:35.690Z,1002.91
2019-03-18T03:40:35.686Z,1002.89
2019-03-18T03:41:35.688Z,1002.89
2019-03-18T03:42:35.663Z,1002.86
2019-03-18T03:43:35.710Z,1002.82
2019-03-18T03:44:35.652Z,1002.89
2019-03-18T03:45:35.631Z,1002.94
2019-03-18T03:46:43.164Z,1002.88
2019-03-18T03:47:36.607Z,1002.99
2019-03-18T03:48:35.593Z,1002.91
2019-03-18T03:49:35.600Z,1003.00
2019-03-18T03:50:35.574Z,1002.97
2019-03-18T03:51:35.580Z,1002.96
2019-03-18T03:52:35.577Z,1002.93
2019-03-18T03:53:35.544Z,1002.90
2019-03-18T03:54:35.537Z,1003.06
2019-03-18T03:55:35.524Z,1002.84
2019-03-18T03:56:35.637Z,1002.90
2019-03-18T03:57:35.497Z,1002.98
2019-03-18T03:58:35.489Z,1002.89
2019-03-18T03:59:35.478Z,1002.92
2019-03-18T04:00:35.480Z,1002.93
2019-03-18T04:01:35.477Z,1003.01
2019-03-18T04:02:35.445Z,1002.96
2019-03-18T04:03:38.661Z,1002.97
2019-03-18T04:04:35.436Z,1003.02
2019-03-18T04:05:35.413Z,1003.02
2019-03-18T04:06:35.430Z,1002.97
2019-03-18T04:07:35.400Z,1003.02
2019-03-18T04:08:35.388Z,1003.00
2019-03-18T04:09:35.370Z,1003.00
2019-03-18T04:10:35.362Z,1002.95
2019-03-18T04:11:35.407Z,1003.03
2019-03-18T04:12:35.360Z,1003.04
2019-03-18T04:13:35.334Z,1003.13
2019-03-18T04:14:35.315Z,1003.12
2019-03-18T04:15:35.312Z,1003.12
2019-03-18T04:16:35.321Z,1003.02
2019-03-18T04:17:35.282Z,1003.16
2019-03-18T04:18:35.287Z,1003.11
2019-03-18T04:19:35.282Z,1003.13
2019-03-18T04:20:35.254Z,1003.16
2019-03-18T04:21:35.258Z,1003.18
2019-03-18T04:22:35.229Z,1003.16
2019-03-18T04:23:35.221Z,1003.15
2019-03-18T04:24:35.233Z,1003.05
2019-03-18T04:25:35.208Z,1003.22
2019-03-18T04:26:35.217Z,1003.29
2019-03-18T04:27:35.192Z,1003.26
2019-03-18T04:28:35.169Z,1003.23
2019-03-18T04:29:35.156Z,1003.18
2019-03-18T04:30:35.151Z,1003.20
2019-03-18T04:31:35.159Z,1003.19
2019-03-18T04:32:35.123Z,1003.25
2019-03-18T04:33:35.124Z,1003.20
2019-03-18T04:34:35.122Z,1003.12
2019-03-18T04:35:35.090Z,1003.21
2019-03-18T04:36:35.096Z,1003.23
2019-03-18T04:37:35.070Z,1003.29
2019-03-18T04:38:35.129Z,1003.22
2019-03-18T04:39:35.047Z,1003.32
2019-03-18T04:40:35.045Z,1003.33
2019-03-18T04:41:35.121Z,1003.38
2019-03-18T04:42:35.019Z,1003.43
2019-03-18T04:43:35.011Z,1003.50
2019-03-18T04:44:34.994Z,1003.41
2019-03-18T04:45:34.991Z,1003.42
2019-03-18T04:46:35.017Z,1003.47
2019-03-18T04:47:35.004Z,1003.49
2019-03-18T04:48:34.977Z,1003.38
2019-03-18T04:49:34.981Z,1003.47
2019-03-18T04:50:34.975Z,1003.45
2019-03-18T04:51:34.937Z,1003.50
2019-03-18T04:52:34.938Z,1003.47
2019-03-18T04:53:34.899Z,1003.50
2019-03-18T04:54:34.899Z,1003.54
2019-03-18T04:55:34.925Z,1003.50
2019-03-18T04:56:34.891Z,1003.48
2019-03-18T04:57:34.871Z,1003.40
2019-03-18T04:58:34.851Z,1003.46
2019-03-18T04:59:34.835Z,1003.38
2019-03-18T05:00:34.825Z,1003.36
2019-03-18T05:01:34.825Z,1003.43
2019-03-18T05:02:34.855Z,1003.49
2019-03-18T05:03:34.791Z,1003.54
2019-03-18T05:04:34.779Z,1003.50
2019-03-18T05:05:34.769Z,1003.43
2019-03-18T05:06:34.767Z,1003.62
2019-03-18T05:07:34.795Z,1003.56
2019-03-18T05:08:34.741Z,1003.57
2019-03-18T05:09:34.729Z,1003.57
2019-03-18T05:10:34.719Z,1003.61
2019-03-18T05:11:34.706Z,1003.51
2019-03-18T05:12:34.711Z,1003.53
2019-03-18T05:13:34.727Z,1003.56
2019-03-18T05:14:35.133Z,1003.63
2019-03-18T05:15:34.667Z,1003.58
2019-03-18T05:16:34.653Z,1003.52
2019-03-18T05:17:34.675Z,1003.72
2019-03-18T05:18:36.677Z,1003.57
2019-03-18T05:19:34.620Z,1003.60
2019-03-18T05:20:34.620Z,1003.65
2019-03-18T05:21:34.605Z,1003.56
2019-03-18T05:22:34.612Z,1003.60
2019-03-18T05:23:34.580Z,1003.67
2019-03-18T05:24:34.568Z,1003.66
2019-03-18T05:25:34.556Z,1003.76
2019-03-18T05:26:34.557Z,1003.79
2019-03-18T05:27:34.569Z,1003.74
2019-03-18T05:28:34.524Z,1003.76
2019-03-18T05:29:34.518Z,1003.76
2019-03-18T05:30:34.502Z,1003.88
2019-03-18T05:31:43.116Z,1003.83
2019-03-18T05:32:34.497Z,1003.81
2019-03-18T05:33:34.576Z,1003.92
2019-03-18T05:34:34.456Z,1003.88
2019-03-18T05:35:34.450Z,1003.94
2019-03-18T05:36:34.450Z,1003.93
2019-03-18T05:37:34.442Z,1004.00
2019-03-18T05:38:34.424Z,1003.91
2019-03-18T05:39:34.422Z,1003.93
2019-03-18T05:40:34.392Z,1003.96
2019-03-18T05:41:34.386Z,1003.96
2019-03-18T05:42:34.400Z,1003.95
2019-03-18T05:43:34.370Z,1004.02
2019-03-18T05:44:34.367Z,1003.98
2019-03-18T05:45:34.344Z,1003.99
2019-03-18T05:46:34.329Z,1004.05
2019-03-18T05:47:39.098Z,1004.07
2019-03-18T05:48:35.304Z,1004.08
2019-03-18T05:49:34.296Z,1004.06
2019-03-18T05:50:34.287Z,1004.08
2019-03-18T05:51:34.276Z,1003.97
2019-03-18T05:52:34.278Z,1004.06
2019-03-18T05:53:34.271Z,1003.94
2019-03-18T05:54:34.246Z,1004.11
2019-03-18T05:55:34.235Z,1004.19
2019-03-18T05:56:34.224Z,1004.13
2019-03-18T05:57:34.222Z,1004.20
2019-03-18T05:58:34.203Z,1004.26
2019-03-18T05:59:34.203Z,1004.28
2019-03-18T06:00:34.178Z,1004.24
2019-03-18T06:01:34.166Z,1004.28
2019-03-18T06:02:34.173Z,1004.29
2019-03-18T06:03:34.149Z,1004.22
2019-03-18T06:04:34.139Z,1004.23
2019-03-18T06:05:34.128Z,1004.20
2019-03-18T06:06:34.114Z,1004.20
2019-03-18T06:07:34.193Z,1004.22
2019-03-18T06:08:34.089Z,1004.28
2019-03-18T06:09:34.079Z,1004.23
2019-03-18T06:10:34.071Z,1004.16
2019-03-18T06:11:34.068Z,1004.19
2019-03-18T06:12:34.065Z,1004.21
2019-03-18T06:13:34.035Z,1004.24
2019-03-18T06:14:34.047Z,1004.20
2019-03-18T06:15:34.017Z,1004.29
2019-03-18T06:16:34.003Z,1004.22
2019-03-18T06:17:34.025Z,1004.29
2019-03-18T06:18:33.985Z,1004.29
2019-03-18T06:19:33.971Z,1004.22
2019-03-18T06:20:33.965Z,1004.35
2019-03-18T06:21:33.950Z,1004.32
2019-03-18T06:22:33.953Z,1004.24
2019-03-18T06:23:33.935Z,1004.30
2019-03-18T06:24:33.948Z,1004.34
2019-03-18T06:25:33.909Z,1004.38
2019-03-18T06:26:33.895Z,1004.36
2019-03-18T06:27:33.903Z,1004.34
2019-03-18T06:28:33.877Z,1004.42
2019-03-18T06:29:33.873Z,1004.43
2019-03-18T06:30:33.873Z,1004.30
2019-03-18T06:31:33.841Z,1004.33
2019-03-18T06:32:33.854Z,1004.42
2019-03-18T06:33:33.821Z,1004.42
2019-03-18T06:34:33.810Z,1004.46
2019-03-18T06:35:33.803Z,1004.41
2019-03-18T06:36:33.830Z,1004.47
2019-03-18T06:37:33.778Z,1004.50
2019-03-18T06:38:33.787Z,1004.58
2019-03-18T06:39:33.768Z,1004.52
2019-03-18T06:40:33.749Z,1004.50
2019-03-18T06:41:33.743Z,1004.57
2019-03-18T06:42:33.752Z,1004.54
2019-03-18T06:43:33.736Z,1004.63
2019-03-18T06:44:33.702Z,1004.60
2019-03-18T06:45:33.693Z,1004.57
2019-03-18T06:46:33.685Z,1004.64
2019-03-18T06:47:33.673Z,1004.58
2019-03-18T06:48:33.688Z,1004.57
2019-03-18T06:49:33.654Z,1004.63
2019-03-18T06:50:33.650Z,1004.55
2019-03-18T06:51:33.631Z,1004.61
2019-03-18T06:52:33.618Z,1004.69
2019-03-18T06:53:33.649Z,1004.69
2019-03-18T06:54:33.612Z,1004.76
2019-03-18T06:55:33.586Z,1004.66
2019-03-18T06:56:33.577Z,1004.73
2019-03-18T06:57:33.562Z,1004.64
2019-03-18T06:58:33.570Z,1004.62
2019-03-18T06:59:33.545Z,1004.72
2019-03-18T07:00:33.542Z,1004.71
2019-03-18T07:01:33.528Z,1004.70
2019-03-18T07:02:33.517Z,1004.77
2019-03-18T07:03:33.516Z,1004.80
2019-03-18T07:04:33.492Z,1004.77
2019-03-18T07:05:33.490Z,1004.79
2019-03-18T07:06:33.499Z,1004.80
2019-03-18T07:07:33.467Z,1004.87
2019-03-18T07:08:33.463Z,1004.82
2019-03-18T07:09:33.436Z,1004.87
2019-03-18T07:10:33.432Z,1004.79
2019-03-18T07:11:33.415Z,1004.90
2019-03-18T07:12:33.423Z,1004.91
2019-03-18T07:13:33.479Z,1004.89
2019-03-18T07:14:33.382Z,1004.85
2019-03-18T07:15:33.379Z,1004.94
2019-03-18T07:16:33.426Z,1004.90
2019-03-18T07:17:33.390Z,1004.96
2019-03-18T07:18:33.368Z,1004.92
2019-03-18T07:19:33.347Z,1004.95
2019-03-18T07:20:33.323Z,1004.97
2019-03-18T07:21:33.308Z,1004.97
2019-03-18T07:22:33.320Z,1005.06
2019-03-18T07:23:33.300Z,1005.03
2019-03-18T07:24:33.288Z,1005.08
2019-03-18T07:25:33.264Z,1005.14
2019-03-18T07:26:33.255Z,1005.12
2019-03-18T07:27:33.261Z,1005.13
2019-03-18T07:28:33.257Z,1005.09
2019-03-18T07:29:33.233Z,1005.15
2019-03-18T07:30:33.207Z,1005.25
2019-03-18T07:31:33.195Z,1005.12
2019-03-18T07:32:33.186Z,1005.13
2019-03-18T07:33:33.177Z,1005.05
2019-03-18T07:34:33.203Z,1005.11
2019-03-18T07:35:33.158Z,1005.09
2019-03-18T07:36:33.143Z,1005.02
2019-03-18T07:37:33.135Z,1005.12
2019-03-18T07:38:33.126Z,1005.10
2019-03-18T07:39:33.121Z,1005.02
2019-03-18T07:40:33.111Z,1005.08
2019-03-18T07:41:33.090Z,1004.97
2019-03-18T07:42:33.077Z,1005.02
2019-03-18T07:43:33.068Z,1004.98
2019-03-18T07:44:33.072Z,1005.03
2019-03-18T07:45:33.045Z,1005.09
2019-03-18T07:46:33.045Z,1005.09
2019-03-18T07:47:33.025Z,1005.16
2019-03-18T07:48:33.016Z,1005.15
2019-03-18T07:49:33.018Z,1005.09
2019-03-18T07:50:32.994Z,1005.11
2019-03-18T07:51:32.986Z,1005.09
2019-03-18T07:52:32.967Z,1005.18
2019-03-18T07:53:32.957Z,1005.18
2019-03-18T07:54:33.362Z,1005.26
2019-03-18T07:55:32.940Z,1005.18
2019-03-18T07:56:32.932Z,1005.21
2019-03-18T07:57:32.946Z,1005.18
2019-03-18T07:58:32.903Z,1005.24
2019-03-18T07:59:32.912Z,1005.23
2019-03-18T08:00:32.883Z,1005.22
2019-03-18T08:01:32.884Z,1005.25
2019-03-18T08:02:32.859Z,1005.35
2019-03-18T08:03:32.852Z,1005.29
2019-03-18T08:04:37.539Z,1005.19
2019-03-18T08:05:33.829Z,1005.27
2019-03-18T08:06:32.821Z,1005.17
2019-03-18T08:07:32.811Z,1005.21
2019-03-18T08:08:32.936Z,1005.22
2019-03-18T08:09:32.788Z,1005.22
2019-03-18T08:10:32.788Z,1005.29
2019-03-18T08:11:32.762Z,1005.29
2019-03-18T08:12:32.754Z,1005.27
2019-03-18T08:13:32.742Z,1005.20
2019-03-18T08:14:32.747Z,1005.28
2019-03-18T08:15:32.734Z,1005.21
2019-03-18T08:16:32.715Z,1005.15
2019-03-18T08:17:32.709Z,1005.09
2019-03-18T08:18:42.699Z,1005.15
2019-03-18T08:19:33.675Z,1005.17
2019-03-18T08:20:32.708Z,1005.18
2019-03-18T08:21:32.654Z,1005.18
2019-03-18T08:22:32.646Z,1005.11
2019-03-18T08:23:32.637Z,1005.62
2019-03-18T08:24:32.624Z,1005.76
2019-03-18T08:25:32.628Z,1005.42
2019-03-18T08:26:32.602Z,1005.39
2019-03-18T08:27:32.588Z,1005.39
2019-03-18T08:28:32.578Z,1005.30
2019-03-18T08:29:32.566Z,1005.43
2019-03-18T08:30:32.574Z,1005.42
2019-03-18T08:31:32.547Z,1005.54
2019-03-18T08:32:32.536Z,1005.36
2019-03-18T08:33:32.526Z,1005.52
2019-03-18T08:34:32.518Z,1005.47
2019-03-18T08:35:32.519Z,1005.47
2019-03-18T08:36:32.490Z,1005.55
2019-03-18T08:37:32.480Z,1005.61
2019-03-18T08:38:32.474Z,1005.58
2019-03-18T08:39:32.473Z,1005.65
2019-03-18T08:40:32.461Z,1005.69
2019-03-18T08:41:32.438Z,1005.68
2019-03-18T08:42:32.436Z,1005.79
2019-03-18T08:43:32.415Z,1005.77
2019-03-18T08:44:32.403Z,1005.69
2019-03-18T08:45:32.426Z,1005.75
2019-03-18T08:46:32.397Z,1005.71
2019-03-18T08:47:32.374Z,1005.70
2019-03-18T08:48:32.363Z,1005.78
2019-03-18T08:49:32.349Z,1005.70
2019-03-18T08:50:32.354Z,1005.81
2019-03-18T08:51:32.331Z,1005.75
2019-03-18T08:52:32.323Z,1005.78
2019-03-18T08:53:32.316Z,1005.75
2019-03-18T08:54:32.297Z,1005.78
2019-03-18T08:55:32.306Z,1005.85
2019-03-18T08:56:32.274Z,1005.87
2019-03-18T08:57:32.309Z,1005.80
2019-03-18T08:58:32.260Z,1005.73
2019-03-18T08:59:32.245Z,1005.68
2019-03-18T09:00:32.245Z,1005.75
2019-03-18T09:01:32.221Z,1005.84
2019-03-18T09:02:32.209Z,1005.79
2019-03-18T09:03:32.214Z,1005.86
2019-03-18T09:04:32.189Z,1005.87
2019-03-18T09:05:32.197Z,1005.79
2019-03-18T09:06:32.184Z,1005.81
2019-03-18T09:07:32.164Z,1005.90
2019-03-18T09:08:32.147Z,1005.84
2019-03-18T09:09:32.139Z,1005.85
2019-03-18T09:10:32.137Z,1005.87
2019-03-18T09:11:32.115Z,1005.89
2019-03-18T09:12:32.106Z,1005.92
2019-03-18T09:13:32.253Z,1005.91
2019-03-18T09:14:32.079Z,1005.90
2019-03-18T09:15:32.092Z,1005.96
2019-03-18T09:16:32.074Z,1005.92
2019-03-18T09:17:32.055Z,1006.00
2019-03-18T09:18:32.047Z,1005.98
2019-03-18T09:19:32.037Z,1005.99
2019-03-18T09:20:32.025Z,1006.09
2019-03-18T09:21:32.004Z,1006.06
2019-03-18T09:22:31.995Z,1006.11
2019-03-18T09:23:31.985Z,1006.01
2019-03-18T09:24:31.978Z,1006.00
2019-03-18T09:25:31.995Z,1006.04
2019-03-18T09:26:31.951Z,1006.07
2019-03-18T09:27:31.939Z,1006.13
2019-03-18T09:28:32.016Z,1006.10
2019-03-18T09:29:31.922Z,1005.93
2019-03-18T09:30:31.931Z,1006.08
2019-03-18T09:31:31.897Z,1006.11
2019-03-18T09:32:31.938Z,1006.10
2019-03-18T09:33:31.885Z,1006.12
2019-03-18T09:34:31.864Z,1006.18
2019-03-18T09:35:31.891Z,1006.26
2019-03-18T09:36:31.840Z,1006.15
2019-03-18T09:37:31.829Z,1006.10
2019-03-18T09:38:31.831Z,1006.09
2019-03-18T09:39:31.815Z,1006.06
2019-03-18T09:40:31.810Z,1006.06
2019-03-18T09:41:31.799Z,1006.13
2019-03-18T09:42:31.775Z,1006.21
2019-03-18T09:43:31.773Z,1006.02
2019-03-18T09:44:31.782Z,1006.11
2019-03-18T09:45:31.774Z,1006.04
2019-03-18T09:46:31.755Z,1006.11
2019-03-18T09:47:31.728Z,1006.24
2019-03-18T09:48:31.716Z,1006.12
2019-03-18T09:49:31.699Z,1006.03
2019-03-18T09:50:31.698Z,1006.03
2019-03-18T09:51:31.777Z,1006.10
2019-03-18T09:52:31.680Z,1006.06
2019-03-18T09:53:31.659Z,1006.06
2019-03-18T09:54:31.656Z,1006.11
2019-03-18T09:55:31.634Z,1006.19
2019-03-18T09:56:31.696Z,1006.07
2019-03-18T09:57:31.683Z,1006.08
2019-03-18T09:58:31.602Z,1006.09
2019-03-18T09:59:31.600Z,1006.13
2019-03-18T10:00:31.580Z,1006.16
2019-03-18T10:01:31.582Z,1006.19
2019-03-18T10:02:31.564Z,1006.26
2019-03-18T10:03:31.554Z,1006.33
2019-03-18T10:04:31.536Z,1006.22
2019-03-18T10:05:31.526Z,1006.26
2019-03-18T10:06:31.526Z,1006.25
2019-03-18T10:07:31.505Z,1006.32
2019-03-18T10:08:31.511Z,1006.22
2019-03-18T10:09:31.494Z,1006.19
2019-03-18T10:10:31.494Z,1006.28
2019-03-18T10:11:31.470Z,1006.26
2019-03-18T10:12:31.450Z,1006.33
2019-03-18T10:13:31.438Z,1006.41
2019-03-18T10:14:31.425Z,1006.41
2019-03-18T10:15:31.428Z,1006.50
2019-03-18T10:16:31.427Z,1006.54
2019-03-18T10:17:31.391Z,1006.60
2019-03-18T10:18:31.381Z,1006.65
2019-03-18T10:19:33.642Z,1006.54
2019-03-18T10:20:31.383Z,1006.57
2019-03-18T10:21:31.396Z,1006.56
2019-03-18T10:22:31.346Z,1006.64
2019-03-18T10:23:31.330Z,1006.64
2019-03-18T10:24:31.318Z,1006.62
2019-03-18T10:25:31.321Z,1006.56
2019-03-18T10:26:31.312Z,1006.47
2019-03-18T10:27:31.288Z,1006.54
2019-03-18T10:28:31.422Z,1006.61
2019-03-18T10:29:31.291Z,1006.54
2019-03-18T10:30:33.872Z,1006.55
2019-03-18T10:31:31.266Z,1006.62
2019-03-18T10:32:31.230Z,1006.60
2019-03-18T10:33:31.219Z,1006.55
2019-03-18T10:34:31.217Z,1006.74
2019-03-18T10:35:31.213Z,1006.69
2019-03-18T10:36:31.205Z,1006.82
2019-03-18T10:37:31.180Z,1006.87
2019-03-18T10:38:31.164Z,1006.79
2019-03-18T10:39:31.157Z,1006.93
2019-03-18T10:40:31.159Z,1007.01
2019-03-18T10:41:31.153Z,1006.98
2019-03-18T10:42:31.128Z,1006.94
2019-03-18T10:43:31.115Z,1007.08
2019-03-18T10:44:31.116Z,1007.15
2019-03-18T10:45:31.097Z,1007.39
2019-03-18T10:46:31.111Z,1007.01
2019-03-18T10:47:31.124Z,1007.07
2019-03-18T10:48:31.059Z,1006.94
2019-03-18T10:49:31.049Z,1007.11
2019-03-18T10:50:31.037Z,1006.93
2019-03-18T10:51:32.041Z,1006.97
2019-03-18T10:52:31.061Z,1006.83
2019-03-18T10:53:31.012Z,1006.82
2019-03-18T10:54:31.447Z,1006.86
2019-03-18T10:55:30.982Z,1006.85
2019-03-18T10:56:30.988Z,1006.82
2019-03-18T10:57:30.963Z,1006.91
2019-03-18T10:58:30.952Z,1006.81
2019-03-18T10:59:30.985Z,1006.90
2019-03-18T11:00:30.925Z,1007.11
2019-03-18T11:01:30.950Z,1006.87
2019-03-18T11:02:30.907Z,1006.83
2019-03-18T11:03:30.906Z,1006.87
2019-03-18T11:04:30.892Z,1006.80
2019-03-18T11:05:30.875Z,1007.04
2019-03-18T11:06:30.910Z,1006.98
2019-03-18T11:07:30.852Z,1006.92
2019-03-18T11:08:30.838Z,1006.92
2019-03-18T11:09:30.837Z,1007.11
2019-03-18T11:10:30.825Z,1007.25
2019-03-18T11:11:30.806Z,1007.13
2019-03-18T11:12:30.824Z,1007.28
2019-03-18T11:13:30.782Z,1007.48
2019-03-18T11:14:30.794Z,1007.42
2019-03-18T11:15:30.761Z,1007.41
2019-03-18T11:16:31.529Z,1007.39
2019-03-18T11:17:30.770Z,1007.21
2019-03-18T11:18:30.757Z,1007.27
2019-03-18T11:19:30.724Z,1007.22
2019-03-18T11:20:30.719Z,1007.19
2019-03-18T11:21:30.696Z,1007.27
2019-03-18T11:22:30.703Z,1007.22
2019-03-18T11:23:30.680Z,1007.18
2019-03-18T11:24:30.667Z,1007.25
2019-03-18T11:25:30.659Z,1007.68
2019-03-18T11:26:30.660Z,1007.80
2019-03-18T11:27:30.645Z,1007.79
2019-03-18T11:28:30.627Z,1007.53
2019-03-18T11:29:30.666Z,1007.41
2019-03-18T11:30:30.598Z,1007.80
2019-03-18T11:31:30.650Z,1008.05
2019-03-18T11:32:30.599Z,1007.82
2019-03-18T11:33:30.568Z,1007.90
2019-03-18T11:34:30.592Z,1007.54
2019-03-18T11:35:30.542Z,1007.29
2019-03-18T11:36:31.682Z,1007.28
2019-03-18T11:37:30.568Z,1007.30
2019-03-18T11:38:31.955Z,1007.23
2019-03-18T11:39:30.498Z,1007.24
2019-03-18T11:40:30.488Z,1007.39
2019-03-18T11:41:30.478Z,1007.23
2019-03-18T11:42:30.484Z,1007.21
2019-03-18T11:43:30.475Z,1007.44
2019-03-18T11:44:30.443Z,1007.13
2019-03-18T11:45:30.440Z,1007.30
2019-03-18T11:46:30.425Z,1007.29
2019-03-18T11:47:30.420Z,1007.42
2019-03-18T11:48:30.437Z,1007.71
2019-03-18T11:49:39.045Z,1007.04
2019-03-18T11:50:31.382Z,1006.98
2019-03-18T11:51:30.390Z,1007.08
2019-03-18T11:52:32.746Z,1007.05
2019-03-18T11:53:30.385Z,1007.09
2019-03-18T11:54:30.393Z,1007.14
2019-03-18T11:55:30.338Z,1007.13
2019-03-18T11:56:30.321Z,1007.22
2019-03-18T11:57:30.527Z,1007.28
2019-03-18T11:58:30.339Z,1007.54
2019-03-18T11:59:30.337Z,1007.12
2019-03-18T12:00:30.282Z,1007.16
2019-03-18T12:01:30.274Z,1007.20
2019-03-18T12:02:30.257Z,1007.26
2019-03-18T12:03:30.268Z,1007.26
2019-03-18T12:04:32.727Z,1007.56
2019-03-18T12:05:30.229Z,1007.41